Time;durP1;ratioP1;P1;durP2;ratioP2;P2;SDS_P1;SDS_P2;PMS_P1;PMS_P2;Temp;Humidity;BMP_temperature;BMP_pressure;BME280_temperature;BME280_humidity;BME280_pressure;Samples;Min_cycle;Max_cycle;Signal;HPM_P1;HPM_P2
2020/12/13 00:01:13;;;;;;;15.20;4.90;;;;;;;5.08;81.91;99578.78;4931855;29;20094;-48
2020/12/13 00:03:40;;;;;;;19.23;6.45;;;;;;;5.10;82.07;99570.22;4935863;29;20426;-47
2020/12/13 00:06:07;;;;;;;14.50;5.45;;;;;;;5.11;82.09;99558.09;4935957;29;20056;-48
2020/12/13 00:08:33;;;;;;;20.90;5.95;;;;;;;5.13;82.02;99575.03;4936070;29;20044;-47
2020/12/13 00:10:59;;;;;;;12.75;3.35;;;;;;;5.14;81.76;99577.41;4936033;29;20044;-48
2020/12/13 00:13:26;;;;;;;19.98;7.10;;;;;;;5.16;82.19;99583.41;4935404;29;20051;-48
2020/12/13 00:15:53;;;;;;;16.35;6.32;;;;;;;5.15;82.27;99568.06;4935630;29;20405;-49
2020/12/13 00:18:20;;;;;;;12.15;4.90;;;;;;;5.17;82.33;99571.25;4925151;29;20083;-46
2020/12/13 00:20:46;;;;;;;18.15;4.10;;;;;;;5.19;82.39;99573.69;4939990;29;20561;-49
2020/12/13 00:23:15;;;;;;;11.02;3.15;;;;;;;5.23;82.69;99572.66;4936098;29;20051;-47
2020/12/13 00:25:41;;;;;;;9.73;2.83;;;;;;;5.27;82.30;99570.06;4942220;29;20052;-47
2020/12/13 00:28:09;;;;;;;17.77;3.28;;;;;;;5.29;82.57;99570.50;4942508;29;20078;-48
2020/12/13 00:30:36;;;;;;;9.85;3.60;;;;;;;5.30;82.46;99570.16;4942126;29;20047;-48
2020/12/13 00:33:03;;;;;;;8.77;2.70;;;;;;;5.32;82.38;99565.13;4942440;29;20470;-47
2020/12/13 00:35:29;;;;;;;8.90;2.58;;;;;;;5.33;82.74;99555.75;4939200;29;20046;-51
2020/12/13 00:37:55;;;;;;;14.43;2.55;;;;;;;5.34;82.64;99543.66;4941550;29;20130;-49
2020/12/13 00:40:22;;;;;;;16.98;5.47;;;;;;;5.35;82.93;99539.75;4941677;29;20043;-47
2020/12/13 00:42:48;;;;;;;10.13;2.90;;;;;;;5.35;82.84;99523.28;4941046;29;20050;-46
2020/12/13 00:45:14;;;;;;;14.70;3.75;;;;;;;5.36;82.82;99526.84;4942255;29;20114;-49
2020/12/13 00:47:40;;;;;;;5.47;2.03;;;;;;;5.36;83.07;99518.59;4941947;29;20071;-49
2020/12/13 00:50:07;;;;;;;9.32;2.85;;;;;;;5.38;83.12;99517.13;4941329;29;20047;-50
2020/12/13 00:52:40;;;;;;;12.30;2.17;;;;;;;5.40;83.02;99509.34;4941677;29;20406;-49
2020/12/13 00:55:06;;;;;;;11.68;3.50;;;;;;;5.43;83.06;99508.66;4942172;29;20119;-49
2020/12/13 00:57:35;;;;;;;7.32;1.85;;;;;;;5.44;82.87;99510.28;4941274;29;20502;-48
2020/12/13 01:00:04;;;;;;;7.43;1.60;;;;;;;5.47;82.91;99492.31;4941492;29;20035;-51
2020/12/13 01:02:30;;;;;;;10.45;1.77;;;;;;;5.50;83.30;99491.66;4941903;29;20039;-48
2020/12/13 01:04:56;;;;;;;11.45;1.58;;;;;;;5.50;82.97;99470.50;4941795;29;20043;-48
2020/12/13 01:07:23;;;;;;;6.47;1.52;;;;;;;5.51;82.99;99463.03;4941328;29;20130;-50
2020/12/13 01:09:49;;;;;;;9.45;1.25;;;;;;;5.52;83.10;99456.41;4939080;29;20217;-47
2020/12/13 01:12:15;;;;;;;5.05;1.13;;;;;;;5.52;83.10;99451.72;4939707;29;20118;-46
2020/12/13 01:14:41;;;;;;;6.82;1.67;;;;;;;5.52;82.99;99427.03;4940055;29;20490;-46
2020/12/13 01:17:08;;;;;;;11.80;1.63;;;;;;;5.50;83.28;99410.09;4937597;29;20462;-48
2020/12/13 01:19:34;;;;;;;8.13;2.08;;;;;;;5.45;83.43;99391.09;4920426;29;20504;-49
2020/12/13 01:22:01;;;;;;;6.78;1.33;;;;;;;5.42;83.08;99372.59;4919155;29;20447;-50
2020/12/13 01:24:28;;;;;;;9.63;1.58;;;;;;;5.38;83.49;99368.13;4921973;29;20051;-46
2020/12/13 01:26:54;;;;;;;4.40;1.00;;;;;;;5.34;83.32;99351.56;4922476;29;20131;-47
2020/12/13 01:29:20;;;;;;;4.85;1.30;;;;;;;5.33;83.72;99354.63;4922766;29;20115;-46
2020/12/13 01:31:46;;;;;;;2.00;1.05;;;;;;;5.30;83.77;99338.84;4922195;29;20040;-46
2020/12/13 01:34:13;;;;;;;7.00;1.40;;;;;;;5.27;84.14;99340.34;4922684;29;20052;-49
2020/12/13 01:36:39;;;;;;;11.65;3.10;;;;;;;5.27;84.27;99329.38;4917266;29;20079;-46
2020/12/13 01:39:06;;;;;;;8.70;1.65;;;;;;;5.26;84.58;99319.56;4918334;29;20126;-47
2020/12/13 01:41:32;;;;;;;7.68;1.17;;;;;;;5.28;84.58;99306.28;4919013;29;20123;-49
2020/12/13 01:44:01;;;;;;;10.48;2.08;;;;;;;5.30;85.11;99311.41;4919991;29;20471;-46
2020/12/13 01:46:28;;;;;;;10.90;2.33;;;;;;;5.31;85.38;99302.84;4919505;29;20428;-47
2020/12/13 01:49:02;;;;;;;8.90;1.35;;;;;;;5.34;85.54;99288.44;4919554;29;20127;-50
2020/12/13 01:51:47;;;;;;;8.77;2.00;;;;;;;5.36;86.19;99299.88;4918498;29;20070;-47
2020/12/13 01:54:14;;;;;;;16.98;2.55;;;;;;;5.40;85.81;99283.53;4919286;29;20040;-47
2020/12/13 01:56:53;;;;;;;7.95;1.85;;;;;;;5.41;86.01;99305.13;4918173;29;20068;-50
2020/12/13 01:59:23;;;;;;;5.28;1.42;;;;;;;5.44;85.91;99300.88;4918968;29;20041;-49
2020/12/13 02:01:59;;;;;;;4.53;1.20;;;;;;;5.47;86.13;99301.00;4918888;29;20072;-47
2020/12/13 02:04:27;;;;;;;7.70;1.42;;;;;;;5.50;85.96;99302.25;4918333;29;20076;-49
2020/12/13 02:06:56;;;;;;;7.03;1.50;;;;;;;5.51;86.09;99301.88;4917927;29;20076;-50
2020/12/13 02:09:23;;;;;;;8.55;1.08;;;;;;;5.53;85.94;99294.09;4919007;29;20131;-47
2020/12/13 02:11:52;;;;;;;9.10;1.50;;;;;;;5.56;86.09;99298.09;4918204;29;20063;-46
2020/12/13 02:14:19;;;;;;;7.15;1.10;;;;;;;5.58;86.06;99293.09;4919085;29;20135;-47
2020/12/13 02:16:48;;;;;;;8.43;2.78;;;;;;;5.61;86.13;99299.81;4920306;29;20064;-47
2020/12/13 02:19:15;;;;;;;15.60;3.28;;;;;;;5.62;85.90;99298.66;4945869;29;20090;-47
2020/12/13 02:21:46;;;;;;;10.30;1.58;;;;;;;5.61;85.99;99295.13;4936234;29;20053;-46
2020/12/13 02:24:14;;;;;;;9.52;1.10;;;;;;;5.62;86.30;99302.22;4937744;29;20051;-46
2020/12/13 02:26:44;;;;;;;13.00;2.85;;;;;;;5.60;86.57;99288.03;4937756;29;20036;-46
2020/12/13 02:29:11;;;;;;;11.93;2.38;;;;;;;5.61;86.78;99295.13;4937640;29;20067;-46
2020/12/13 02:31:38;;;;;;;19.38;3.63;;;;;;;5.63;86.94;99281.06;4936789;29;20131;-46
2020/12/13 02:34:05;;;;;;;14.85;2.63;;;;;;;5.65;86.93;99265.03;4937827;29;20048;-47
2020/12/13 02:36:32;;;;;;;12.27;1.75;;;;;;;5.66;87.16;99258.41;4936898;29;20557;-46
2020/12/13 02:38:59;;;;;;;10.93;2.15;;;;;;;5.68;87.19;99256.09;4937554;29;20086;-46
2020/12/13 02:41:26;;;;;;;9.60;1.90;;;;;;;5.69;87.55;99252.22;4936500;29;20139;-46
2020/12/13 02:43:52;;;;;;;14.05;2.97;;;;;;;5.70;87.58;99243.59;4936865;29;20055;-46
2020/12/13 02:46:19;;;;;;;16.85;2.50;;;;;;;5.72;87.72;99216.59;4937289;29;20056;-46
2020/12/13 02:48:46;;;;;;;9.27;2.50;;;;;;;5.77;87.77;99218.31;4936876;29;20050;-48
2020/12/13 02:51:12;;;;;;;9.80;3.47;;;;;;;5.82;88.12;99190.59;4936595;29;20053;-47
2020/12/13 02:53:38;;;;;;;12.65;2.38;;;;;;;5.84;88.16;99172.63;4937282;29;20131;-48
2020/12/13 02:56:05;;;;;;;43.83;6.22;;;;;;;5.89;88.10;99168.84;4943435;29;20048;-49
2020/12/13 02:58:31;;;;;;;14.07;2.58;;;;;;;5.94;88.25;99179.56;4936604;29;20040;-49
2020/12/13 03:00:57;;;;;;;17.92;4.43;;;;;;;5.99;88.44;99168.31;4936728;29;20055;-48
2020/12/13 03:03:24;;;;;;;11.05;3.20;;;;;;;6.04;88.65;99195.50;4936914;29;20055;-52
2020/12/13 03:05:51;;;;;;;15.45;2.10;;;;;;;6.11;88.32;99198.47;4936401;29;20086;-49
2020/12/13 03:08:17;;;;;;;7.28;1.55;;;;;;;6.13;88.53;99194.22;4935301;29;20078;-47
2020/12/13 03:10:44;;;;;;;11.98;2.33;;;;;;;6.17;88.34;99186.03;4936052;29;20473;-49
2020/12/13 03:13:10;;;;;;;8.00;1.83;;;;;;;6.19;88.33;99181.00;4936804;29;20055;-48
2020/12/13 03:15:37;;;;;;;11.55;1.77;;;;;;;6.20;88.43;99168.84;4936646;29;20138;-46
2020/12/13 03:18:03;;;;;;;15.82;1.85;;;;;;;6.21;88.79;99186.94;4945018;29;20059;-47
2020/12/13 03:20:30;;;;;;;10.23;1.40;;;;;;;6.23;88.71;99178.34;4945520;29;20055;-48
2020/12/13 03:22:57;;;;;;;7.18;1.42;;;;;;;6.24;88.47;99174.44;4948221;29;20505;-49
2020/12/13 03:25:23;;;;;;;7.55;1.90;;;;;;;6.27;88.78;99168.25;4947643;29;20562;-49
2020/12/13 03:27:51;;;;;;;9.45;1.60;;;;;;;6.26;88.84;99164.69;4947519;29;20058;-49
2020/12/13 03:30:17;;;;;;;8.30;1.40;;;;;;;6.29;88.86;99165.94;4955095;29;20067;-51
2020/12/13 03:32:43;;;;;;;8.60;2.17;;;;;;;6.31;88.96;99164.44;4945669;29;20486;-50
2020/12/13 03:35:10;;;;;;;8.55;1.63;;;;;;;6.33;88.95;99151.13;4937275;29;20112;-48
2020/12/13 03:37:36;;;;;;;3.58;0.70;;;;;;;6.33;89.09;99144.84;4944757;29;20098;-47
2020/12/13 03:40:02;;;;;;;4.53;1.23;;;;;;;6.35;89.31;99126.84;4951972;29;20139;-47
2020/12/13 03:42:29;;;;;;;5.30;0.98;;;;;;;6.37;89.04;99113.53;4937023;29;20090;-48
2020/12/13 03:44:55;;;;;;;10.77;1.60;;;;;;;6.40;89.32;99106.53;4938133;29;20047;-49
2020/12/13 03:47:21;;;;;;;3.38;0.80;;;;;;;6.40;89.47;99096.34;4947968;29;20051;-48
2020/12/13 03:49:48;;;;;;;5.18;0.90;;;;;;;6.41;89.61;99089.66;4935729;29;20050;-47
2020/12/13 03:52:14;;;;;;;10.88;1.17;;;;;;;6.42;89.85;99077.53;4949609;29;20128;-51
2020/12/13 03:54:41;;;;;;;8.05;1.00;;;;;;;6.44;89.67;99075.22;4942578;29;20474;-47
2020/12/13 03:57:07;;;;;;;4.15;1.20;;;;;;;6.46;89.89;99077.63;4940509;29;20066;-50
2020/12/13 03:59:33;;;;;;;8.45;1.70;;;;;;;6.47;90.19;99063.50;4934358;29;20099;-46
2020/12/13 04:02:03;;;;;;;9.90;1.25;;;;;;;6.49;90.12;99043.88;4953935;29;20078;-45
2020/12/13 04:04:30;;;;;;;9.77;1.00;;;;;;;6.50;90.25;99046.28;4949367;29;20128;-46
2020/12/13 04:06:57;;;;;;;5.43;0.93;;;;;;;6.49;90.32;99039.19;4942974;29;20075;-46
2020/12/13 04:09:24;;;;;;;11.65;1.23;;;;;;;6.52;90.32;99021.19;4936297;29;20051;-48
2020/12/13 04:11:51;;;;;;;6.10;1.02;;;;;;;6.51;90.27;99009.38;4951212;29;20047;-49
2020/12/13 04:14:17;;;;;;;5.50;1.00;;;;;;;6.51;90.42;98992.88;4951040;29;20497;-45
2020/12/13 04:16:44;;;;;;;9.10;1.23;;;;;;;6.52;90.51;98994.50;4937196;29;20520;-48
2020/12/13 04:19:11;;;;;;;3.13;1.10;;;;;;;6.54;90.77;98986.66;4954956;29;20516;-46
2020/12/13 04:21:38;;;;;;;6.57;1.30;;;;;;;6.55;90.85;98979.22;4952318;29;20075;-52
2020/12/13 04:24:04;;;;;;;8.77;1.83;;;;;;;6.58;90.70;98975.75;4944306;29;20054;-47
2020/12/13 04:26:32;;;;;;;10.50;2.03;;;;;;;6.60;91.00;98966.00;4936073;29;20079;-47
2020/12/13 04:28:59;;;;;;;8.43;1.10;;;;;;;6.62;90.95;98960.91;4948035;29;20075;-46
2020/12/13 04:31:25;;;;;;;8.88;1.30;;;;;;;6.64;91.10;98949.56;4946571;29;20145;-47
2020/12/13 04:33:52;;;;;;;3.53;1.00;;;;;;;6.66;91.06;98950.00;4935967;29;20094;-50
2020/12/13 04:36:18;;;;;;;8.25;1.15;;;;;;;6.67;90.97;98952.38;4947399;29;20043;-52
2020/12/13 04:38:44;;;;;;;6.22;0.90;;;;;;;6.67;91.11;98952.38;4946182;29;20067;-45
2020/12/13 04:41:11;;;;;;;13.30;2.10;;;;;;;6.69;90.98;98943.78;4935297;29;20079;-46
2020/12/13 04:43:39;;;;;;;4.82;1.30;;;;;;;6.68;91.20;98931.97;4942833;29;20047;-48
2020/12/13 04:46:07;;;;;;;9.07;1.25;;;;;;;6.69;91.25;98928.09;4935789;29;20071;-46
2020/12/13 04:48:34;;;;;;;16.88;3.80;;;;;;;6.72;91.26;98934.81;4935362;29;20048;-46
2020/12/13 04:51:00;;;;;;;9.02;1.58;;;;;;;6.73;91.42;98917.13;4945773;29;20070;-50
2020/12/13 04:53:28;;;;;;;16.75;1.50;;;;;;;6.75;91.61;98899.09;4945922;29;20521;-49
2020/12/13 04:55:57;;;;;;;8.90;1.92;;;;;;;6.78;91.33;98908.56;4954918;29;20497;-46
2020/12/13 04:58:26;;;;;;;14.57;1.50;;;;;;;6.81;91.58;98890.56;4940801;29;20051;-48
2020/12/13 05:01:02;;;;;;;16.30;1.60;;;;;;;6.82;91.39;98881.16;4935577;29;20072;-47
2020/12/13 05:03:29;;;;;;;11.18;1.35;;;;;;;6.83;91.77;98869.78;4936373;29;20423;-46
2020/12/13 05:06:01;;;;;;;8.80;2.42;;;;;;;6.86;91.57;98849.03;4944439;29;20139;-48
2020/12/13 05:08:31;;;;;;;7.40;0.77;;;;;;;6.86;91.41;98835.25;4939052;29;20039;-50
2020/12/13 05:10:58;;;;;;;4.32;0.52;;;;;;;6.87;91.61;98828.59;4937613;29;20047;-49
2020/12/13 05:13:24;;;;;;;2.90;0.60;;;;;;;6.90;91.43;98816.84;4937565;29;20047;-47
2020/12/13 05:15:52;;;;;;;9.93;0.98;;;;;;;6.91;91.59;98801.94;4939100;29;20058;-47
2020/12/13 05:18:19;;;;;;;5.03;1.27;;;;;;;6.91;91.67;98794.47;4932087;29;20063;-47
2020/12/13 05:20:46;;;;;;;10.68;1.30;;;;;;;6.92;91.90;98765.81;4929855;29;20048;-51
2020/12/13 05:23:13;;;;;;;16.20;1.95;;;;;;;6.95;91.67;98789.03;4919635;29;20130;-50
2020/12/13 05:25:40;;;;;;;6.38;1.13;;;;;;;6.97;91.67;98778.44;4920289;29;20442;-48
2020/12/13 05:28:09;;;;;;;7.90;1.20;;;;;;;6.98;91.77;98780.03;4919346;29;20083;-49
2020/12/13 05:30:46;;;;;;;6.82;1.33;;;;;;;7.00;91.90;98788.72;4918546;29;20056;-47
2020/12/13 05:35:45;;;;;;;;;;;;;;;7.06;92.48;98774.28;4919655;29;20036;-47
2020/12/13 05:38:16;;;;;;;11.45;2.17;;;;;;;7.09;91.92;98764.50;4919657;29;19954;-47
2020/12/13 05:40:43;;;;;;;6.63;1.27;;;;;;;7.10;91.81;98755.88;4909277;29;20115;-48
2020/12/13 05:43:16;;;;;;;7.28;0.60;;;;;;;7.11;91.81;98762.16;4919969;29;20079;-47
2020/12/13 05:48:38;;;;;;;8.18;1.35;;;;;;;7.16;91.70;98770.09;4919057;29;20225;-47
2020/12/13 05:53:55;;;;;;;6.07;0.88;;;;;;;7.20;91.96;98748.94;4918053;29;20443;-48
2020/12/13 05:56:24;;;;;;;9.77;1.40;;;;;;;7.21;91.86;98731.25;4919713;29;20151;-47
2020/12/13 05:58:52;;;;;;;7.53;1.10;;;;;;;7.22;91.66;98713.59;4905078;29;20391;-51
2020/12/13 06:01:24;;;;;;;4.50;0.90;;;;;;;7.23;91.86;98715.16;4919248;29;20036;-47
2020/12/13 06:03:54;;;;;;;7.15;0.65;;;;;;;7.25;92.15;98710.09;4918679;29;20047;-46
2020/12/13 06:06:25;;;;;;;2.65;0.77;;;;;;;7.27;92.07;98694.00;4917615;29;20052;-47
2020/12/13 06:08:58;;;;;;;;;;;;;;;7.26;92.55;98693.19;4919745;29;20111;-49
2020/12/13 06:11:37;;;;;;;6.00;0.68;;;;;;;7.29;92.26;98684.19;4918637;29;20029;-48
2020/12/13 06:14:09;;;;;;;7.13;1.10;;;;;;;7.32;92.24;98655.13;4919120;29;20044;-46
2020/12/13 06:16:37;;;;;;;2.10;0.90;;;;;;;7.35;92.22;98654.38;4919119;29;20040;-48
2020/12/13 06:19:05;;;;;;;4.38;1.95;;;;;;;7.39;92.17;98646.19;4919022;29;20432;-47
2020/12/13 06:21:33;;;;;;;4.85;0.60;;;;;;;7.43;92.00;98658.03;4917585;29;20131;-47
2020/12/13 06:24:01;;;;;;;7.72;1.13;;;;;;;7.45;92.29;98645.47;4918320;29;20076;-47
2020/12/13 06:26:28;;;;;;;2.90;1.00;;;;;;;7.50;92.40;98631.34;4918528;29;20044;-47
2020/12/13 06:28:55;;;;;;;4.15;0.70;;;;;;;7.52;92.11;98620.00;4919187;29;20059;-48
2020/12/13 06:31:21;;;;;;;0.73;0.20;;;;;;;7.54;92.38;98612.13;4918785;29;20072;-48
2020/12/13 06:33:48;;;;;;;4.55;0.57;;;;;;;7.55;92.30;98628.28;4917779;29;20398;-47
2020/12/13 06:36:14;;;;;;;4.05;0.70;;;;;;;7.57;92.29;98603.13;4918369;29;20070;-47
2020/12/13 06:38:41;;;;;;;4.97;0.93;;;;;;;7.58;92.23;98605.50;4918692;29;20518;-47
2020/12/13 06:41:12;;;;;;;2.80;0.47;;;;;;;7.60;92.34;98586.63;4916941;29;20131;-47
2020/12/13 06:43:40;;;;;;;3.80;0.55;;;;;;;7.63;92.47;98596.09;4917016;29;20063;-49
2020/12/13 06:46:15;;;;;;;3.65;0.40;;;;;;;7.64;92.56;98570.94;4918592;29;20499;-50
2020/12/13 06:48:43;;;;;;;3.92;0.50;;;;;;;7.67;92.59;98559.19;4918459;29;20072;-49
2020/12/13 06:51:15;;;;;;;5.32;0.73;;;;;;;7.70;92.64;98565.88;4917887;29;20048;-48
2020/12/13 06:53:42;;;;;;;;;;;;;;;7.68;93.16;98549.72;4915672;29;20044;-47
2020/12/13 06:56:12;;;;;;;7.13;0.75;;;;;;;7.72;92.89;98545.06;4917527;29;19973;-49
2020/12/13 06:58:55;;;;;;;4.18;0.57;;;;;;;7.75;92.95;98549.81;4913412;29;20458;-46
2020/12/13 07:01:30;;;;;;;4.63;0.77;;;;;;;7.80;92.83;98534.88;4917854;29;20040;-46
2020/12/13 07:04:00;;;;;;;8.77;1.25;;;;;;;7.82;92.96;98533.34;4918336;29;20054;-49
2020/12/13 07:06:43;;;;;;;8.40;1.38;;;;;;;7.85;92.99;98527.06;4907107;29;20078;-47
2020/12/13 07:09:12;;;;;;;8.73;1.48;;;;;;;7.87;92.96;98519.22;4918633;29;20087;-47
2020/12/13 07:11:42;;;;;;;5.32;1.50;;;;;;;7.91;92.87;98516.50;4917560;29;20032;-48
2020/12/13 07:14:14;;;;;;;3.83;0.77;;;;;;;7.93;92.98;98503.13;4908772;29;20139;-46
2020/12/13 07:16:47;;;;;;;3.47;0.80;;;;;;;7.94;93.07;98507.47;4917566;29;20139;-47
2020/12/13 07:19:15;;;;;;;5.72;0.98;;;;;;;7.98;92.92;98498.03;4918099;29;20052;-47
2020/12/13 07:21:44;;;;;;;8.45;2.22;;;;;;;8.02;92.93;98503.59;4916610;29;20055;-48
2020/12/13 07:24:11;;;;;;;12.85;2.85;;;;;;;8.06;93.24;98484.31;4916993;29;20486;-50
2020/12/13 07:26:39;;;;;;;13.70;3.55;;;;;;;8.08;93.21;98488.25;4917330;29;20048;-46
2020/12/13 07:29:15;;;;;;;12.73;4.05;;;;;;;8.09;93.07;98489.06;4917605;29;20131;-46
2020/12/13 07:31:45;;;;;;;16.67;3.83;;;;;;;8.13;93.03;98487.13;4917409;29;20040;-48
2020/12/13 07:34:12;;;;;;;9.57;3.22;;;;;;;8.14;93.13;98461.94;4917028;29;20071;-47
2020/12/13 07:36:39;;;;;;;9.23;3.05;;;;;;;8.16;93.00;98465.09;4916669;29;20177;-47
2020/12/13 07:39:07;;;;;;;10.52;2.80;;;;;;;8.19;92.97;98464.31;4918021;29;20119;-47
2020/12/13 07:41:33;;;;;;;9.90;2.42;;;;;;;8.20;93.02;98465.13;4917047;29;20099;-46
2020/12/13 07:44:05;;;;;;;13.50;2.80;;;;;;;8.22;93.12;98454.50;4917236;29;20036;-48
2020/12/13 07:46:33;;;;;;;11.40;3.80;;;;;;;8.23;93.03;98454.13;4917176;29;20090;-48
2020/12/13 07:49:05;;;;;;;11.07;3.65;;;;;;;8.25;93.30;98448.22;4916952;29;20134;-47
2020/12/13 07:51:34;;;;;;;7.63;2.20;;;;;;;8.26;93.18;98458.06;4916966;29;20137;-46
2020/12/13 07:54:22;;;;;;;7.78;2.20;;;;;;;8.27;93.36;98454.16;4916874;29;20075;-48
2020/12/13 07:56:59;;;;;;;3.83;1.30;;;;;;;8.29;93.49;98452.59;4917362;29;20170;-47
2020/12/13 07:59:27;;;;;;;8.77;2.05;;;;;;;8.32;93.54;98446.31;4917236;29;20123;-46
2020/12/13 08:01:58;;;;;;;8.45;1.60;;;;;;;8.32;93.06;98446.31;4911755;29;20407;-46
2020/12/13 08:04:44;;;;;;;6.47;1.42;;;;;;;8.35;93.52;98451.06;4916730;29;20091;-46
2020/12/13 08:07:12;;;;;;;7.07;1.52;;;;;;;8.38;93.35;98436.50;4900375;29;20048;-46
2020/12/13 08:09:42;;;;;;;3.90;1.67;;;;;;;8.40;93.46;98447.94;4916705;29;20126;-50
2020/12/13 08:12:14;;;;;;;5.22;1.15;;;;;;;8.43;93.41;98441.66;4917041;29;20051;-46
2020/12/13 08:14:41;;;;;;;8.35;1.73;;;;;;;8.45;93.25;98431.03;4907652;29;20102;-46
2020/12/13 08:17:07;;;;;;;9.32;1.83;;;;;;;8.47;93.32;98419.63;4917620;28;20048;-46
2020/12/13 08:19:40;;;;;;;5.05;1.52;;;;;;;8.51;93.30;98420.41;4944536;29;20046;-47
2020/12/13 08:22:26;;;;;;;3.92;1.15;;;;;;;8.52;93.37;98394.44;4938023;29;20126;-46
2020/12/13 08:25:00;;;;;;;5.43;1.77;;;;;;;8.53;93.23;98393.22;4943377;28;20478;-49
2020/12/13 08:27:32;;;;;;;5.68;0.70;;;;;;;8.55;93.44;98404.69;4934432;29;20091;-47
2020/12/13 08:30:00;;;;;;;4.40;0.80;;;;;;;8.58;93.18;98409.41;4945939;29;20047;-46
2020/12/13 08:32:34;;;;;;;3.60;0.60;;;;;;;8.58;93.38;98398.38;4933274;29;20086;-47
2020/12/13 08:35:15;;;;;;;6.70;1.55;;;;;;;8.61;93.12;98396.78;4942083;29;20130;-47
2020/12/13 08:37:56;;;;;;;5.60;0.63;;;;;;;8.61;93.30;98386.56;4934152;29;20082;-46
2020/12/13 08:40:44;;;;;;;2.13;0.90;;;;;;;8.64;93.32;98373.97;4933788;29;20039;-46
2020/12/13 08:43:17;;;;;;;3.42;0.85;;;;;;;8.69;93.13;98376.34;4934454;29;20051;-46
2020/12/13 08:45:56;;;;;;;2.65;1.05;;;;;;;8.71;93.28;98385.03;4935126;29;20047;-46
2020/12/13 08:48:26;;;;;;;5.18;1.63;;;;;;;8.72;93.29;98370.84;4937711;29;20058;-48
2020/12/13 08:51:12;;;;;;;13.48;1.40;;;;;;;8.75;93.32;98352.72;4937072;29;20122;-48
2020/12/13 08:53:38;;;;;;;8.05;1.50;;;;;;;8.77;93.18;98347.59;4936447;29;20046;-49
2020/12/13 08:56:10;;;;;;;8.93;1.73;;;;;;;8.77;93.26;98340.09;4937245;29;20040;-46
2020/12/13 08:58:57;;;;;;;16.98;2.30;;;;;;;8.79;93.29;98320.41;4936673;29;20051;-46
2020/12/13 09:01:30;;;;;;;9.18;1.70;;;;;;;8.79;93.23;98315.66;4929801;29;20051;-47
2020/12/13 09:03:57;;;;;;;12.88;2.55;;;;;;;8.81;93.18;98318.84;4938107;29;20162;-48
2020/12/13 09:06:31;;;;;;;14.23;2.05;;;;;;;8.81;93.24;98298.75;4936090;29;20044;-47
2020/12/13 09:09:12;;;;;;;12.95;2.38;;;;;;;8.81;93.59;98294.00;4936433;29;20051;-53
2020/12/13 09:11:38;;;;;;;11.98;2.88;;;;;;;8.81;93.09;98288.50;4940883;29;20442;-51
2020/12/13 09:14:05;;;;;;;22.95;3.17;;;;;;;8.81;93.15;98274.69;4925401;29;20488;-48
2020/12/13 09:16:33;;;;;;;21.75;3.63;;;;;;;8.81;93.11;98258.16;4936663;29;20052;-49
2020/12/13 09:19:12;;;;;;;26.10;5.25;;;;;;;8.81;93.22;98240.81;4937148;29;20126;-51
2020/12/13 09:21:54;;;;;;;29.25;4.53;;;;;;;8.81;93.29;98232.53;4930052;29;20040;-51
2020/12/13 09:24:23;;;;;;;28.73;4.25;;;;;;;8.82;93.08;98232.13;4951085;29;20083;-47
2020/12/13 09:27:22;;;;;;;28.85;3.88;;;;;;;8.82;93.26;98221.09;4937717;29;20071;-51
2020/12/13 09:29:50;;;;;;;28.02;6.65;;;;;;;8.84;93.18;98213.19;4936149;29;20115;-53
2020/12/13 09:32:19;;;;;;;25.20;3.67;;;;;;;8.86;93.59;98216.38;4936706;29;20414;-50
2020/12/13 09:34:46;;;;;;;22.30;3.95;;;;;;;8.90;93.56;98216.34;4936346;29;20103;-50
2020/12/13 09:37:14;;;;;;;28.30;6.20;;;;;;;8.92;93.51;98206.50;4936184;29;20099;-51
2020/12/13 09:39:41;;;;;;;23.48;3.70;;;;;;;8.94;93.57;98208.88;4931364;29;20044;-48
2020/12/13 09:42:09;;;;;;;21.45;4.72;;;;;;;8.99;93.64;98209.25;4937530;29;20052;-49
2020/12/13 09:44:36;;;;;;;25.75;5.55;;;;;;;9.03;93.52;98198.19;4936694;29;20099;-50
2020/12/13 09:47:02;;;;;;;32.85;6.60;;;;;;;9.04;93.61;98195.06;4936435;29;20048;-52
2020/12/13 09:49:30;;;;;;;25.23;4.72;;;;;;;9.07;93.76;98205.31;4937188;29;20059;-49
2020/12/13 09:51:58;;;;;;;32.80;5.22;;;;;;;9.11;94.00;98206.06;4934541;29;20058;-48
2020/12/13 09:54:25;;;;;;;30.83;6.32;;;;;;;9.15;93.93;98203.31;4934119;29;20047;-47
2020/12/13 09:56:52;;;;;;;44.67;6.57;;;;;;;9.18;93.85;98194.25;4933985;29;20051;-54
2020/12/13 09:59:23;;;;;;;33.95;6.50;;;;;;;9.21;94.02;98198.97;4988733;22;20144;-49
2020/12/13 10:01:49;;;;;;;33.03;7.53;;;;;;;9.26;94.23;98195.00;5075752;22;20063;-53
2020/12/13 10:04:18;;;;;;;33.05;7.43;;;;;;;9.28;93.99;98198.16;5072158;28;20074;-49
2020/12/13 10:09:33;;;;;;;36.70;5.88;;;;;;;9.34;93.83;98208.41;5073061;28;20043;-52
2020/12/13 10:11:59;;;;;;;30.70;6.53;;;;;;;9.36;93.92;98216.28;5073527;28;20064;-51
2020/12/13 10:14:26;;;;;;;27.02;7.28;;;;;;;9.37;94.05;98215.09;5070593;28;20044;-48
2020/12/13 10:16:54;;;;;;;31.27;8.18;;;;;;;9.36;93.72;98227.31;5067243;28;20036;-52
2020/12/13 10:19:21;;;;;;;45.05;9.85;;;;;;;9.37;93.88;98226.16;5050657;28;20033;-54
2020/12/13 10:21:49;;;;;;;35.25;10.23;;;;;;;9.37;93.88;98245.47;5069029;28;20048;-48
2020/12/13 10:24:15;;;;;;;37.22;8.05;;;;;;;9.38;93.91;98261.63;5048995;28;20045;-48
2020/12/13 10:26:41;;;;;;;20.58;4.13;;;;;;;9.40;93.94;98264.78;5072083;28;20055;-49
2020/12/13 10:29:08;;;;;;;21.95;5.60;;;;;;;9.42;94.00;98265.19;5066467;28;20056;-49
2020/12/13 10:31:37;;;;;;;25.48;6.00;;;;;;;9.44;93.89;98253.75;5042905;28;20123;-52
2020/12/13 10:34:06;;;;;;;31.05;7.20;;;;;;;9.45;93.75;98241.53;5068899;28;20139;-50
2020/12/13 10:36:33;;;;;;;26.35;6.85;;;;;;;9.47;93.72;98228.09;5053409;28;20766;-48
2020/12/13 10:39:00;;;;;;;163.20;23.08;;;;;;;9.49;93.86;98218.22;5064514;28;20052;-50
2020/12/13 10:41:26;;;;;;;33.58;7.72;;;;;;;9.49;93.80;98209.16;5037546;28;20029;-53
2020/12/13 10:43:53;;;;;;;34.35;11.63;;;;;;;9.51;93.86;98209.53;5056950;28;20135;-54
2020/12/13 10:46:19;;;;;;;35.65;11.75;;;;;;;9.53;93.98;98207.19;5070457;28;20820;-48
2020/12/13 10:48:46;;;;;;;22.65;8.27;;;;;;;9.54;93.88;98222.53;5072505;28;20060;-49
2020/12/13 10:51:17;;;;;;;36.72;10.60;;;;;;;9.56;93.84;98214.63;5064178;28;20140;-53
2020/12/13 10:53:44;;;;;;;21.88;8.77;;;;;;;9.58;93.76;98212.28;5049305;28;20099;-52
2020/12/13 10:56:10;;;;;;;27.20;9.77;;;;;;;9.57;93.79;98197.69;5078881;28;20037;-51
2020/12/13 10:58:41;;;;;;;28.42;11.35;;;;;;;9.60;93.92;98179.53;5093158;28;20081;-50
2020/12/13 11:01:08;;;;;;;22.77;10.32;;;;;;;9.63;93.89;98162.16;5075840;28;20140;-49
2020/12/13 11:03:35;;;;;;;22.00;10.73;;;;;;;9.67;93.95;98138.03;5071862;28;20465;-48
2020/12/13 11:06:02;;;;;;;22.88;7.63;;;;;;;9.74;94.01;98118.69;5069344;28;20064;-51
2020/12/13 11:08:28;;;;;;;17.42;6.13;;;;;;;9.75;94.05;98128.53;5048471;28;20076;-51
2020/12/13 11:10:55;;;;;;;13.75;6.43;;;;;;;9.79;94.06;98115.50;5066185;28;20052;-54
2020/12/13 11:13:22;;;;;;;17.10;6.43;;;;;;;9.81;94.18;98113.09;5049029;28;20123;-54
2020/12/13 11:15:48;;;;;;;16.63;6.38;;;;;;;9.85;94.06;98113.84;5055481;28;20123;-50
2020/12/13 11:18:14;;;;;;;14.85;6.30;;;;;;;9.89;94.01;98103.59;5051891;28;20044;-51
2020/12/13 11:20:41;;;;;;;23.02;8.15;;;;;;;9.92;94.17;98102.00;5068483;28;20051;-50
2020/12/13 11:23:09;;;;;;;22.25;8.73;;;;;;;9.93;94.42;98104.34;5069860;28;20135;-51
2020/12/13 11:25:35;;;;;;;24.30;9.30;;;;;;;9.94;94.10;98103.16;5040431;28;20132;-54
2020/12/13 11:28:03;;;;;;;29.95;9.32;;;;;;;9.96;94.09;98088.91;5070685;28;20555;-55
2020/12/13 11:30:29;;;;;;;19.85;8.05;;;;;;;10.02;93.96;98084.53;5067597;28;20060;-53
2020/12/13 11:32:55;;;;;;;22.65;9.23;;;;;;;10.05;94.19;98067.16;5067045;28;20044;-52
2020/12/13 11:35:24;;;;;;;28.15;8.68;;;;;;;10.10;94.12;98039.84;5063606;28;20113;-54
2020/12/13 11:37:51;;;;;;;17.55;4.68;;;;;;;10.17;94.08;98006.66;5061062;28;20076;-55
2020/12/13 11:40:17;;;;;;;8.43;2.92;;;;;;;10.21;94.12;98007.41;5071253;28;20048;-53
2020/12/13 11:42:44;;;;;;;10.90;2.97;;;;;;;10.26;94.10;98008.94;5057528;28;20517;-52
2020/12/13 11:45:11;;;;;;;16.88;4.68;;;;;;;10.30;94.01;98010.47;5055785;28;20064;-50
2020/12/13 11:47:37;;;;;;;12.10;3.10;;;;;;;10.35;93.91;98007.25;5057634;28;20672;-51
2020/12/13 11:50:05;;;;;;;9.80;3.08;;;;;;;10.41;93.73;97996.53;5062428;28;20076;-53
2020/12/13 11:52:32;;;;;;;8.25;2.90;;;;;;;10.45;93.79;97986.25;5040462;28;20725;-52
2020/12/13 11:55:00;;;;;;;13.32;3.08;;;;;;;10.53;93.75;97973.13;5061381;28;20091;-52
2020/12/13 11:57:26;;;;;;;5.82;2.97;;;;;;;10.60;93.45;97978.56;5078026;28;20079;-55